createdAt,value
2019-04-23T00:00:25.064Z,1010.04
2019-04-23T00:02:29.762Z,1010.05
2019-04-23T00:03:36.875Z,1010.07
2019-04-23T00:04:28.973Z,1010.00
2019-04-23T00:05:41.415Z,1010.01
2019-04-23T00:07:51.835Z,1009.97
2019-04-23T00:08:36.520Z,1009.92
2019-04-23T00:09:34.923Z,1010.02
2019-04-23T00:10:30.146Z,1010.00
2019-04-23T00:11:35.609Z,1010.02
2019-04-23T00:12:34.369Z,1009.96
2019-04-23T00:13:37.114Z,1010.02
2019-04-23T00:14:37.985Z,1009.95
2019-04-23T00:15:25.215Z,1009.97
2019-04-23T00:16:29.852Z,1009.98
2019-04-23T00:18:36.917Z,1010.03
2019-04-23T00:19:32.967Z,1009.85
2019-04-23T00:20:25.681Z,1009.76
2019-04-23T00:21:34.588Z,1009.95
2019-04-23T00:22:30.014Z,1009.94
2019-04-23T00:23:35.149Z,1009.87
2019-04-23T00:24:54.431Z,1009.85
2019-04-23T00:25:44.961Z,1009.83
2019-04-23T00:26:37.209Z,1009.86
2019-04-23T00:29:36.770Z,1009.78
2019-04-23T00:30:36.883Z,1009.79
2019-04-23T00:31:44.387Z,1009.78
2019-04-23T00:33:30.248Z,1009.74
2019-04-23T00:34:33.362Z,1009.70
2019-04-23T00:35:37.146Z,1009.72
2019-04-23T00:36:32.724Z,1009.73
2019-04-23T00:38:34.956Z,1009.80
2019-04-23T00:39:36.130Z,1009.76
2019-04-23T00:40:32.082Z,1009.73
2019-04-23T00:41:30.863Z,1009.79
2019-04-23T00:43:27.206Z,1009.64
2019-04-23T00:44:34.969Z,1009.66
2019-04-23T00:45:32.670Z,1009.64
2019-04-23T00:47:36.833Z,1009.62
2019-04-23T00:49:32.545Z,1009.62
2019-04-23T00:50:42.870Z,1009.85
2019-04-23T00:51:32.415Z,1009.69
2019-04-23T00:53:35.647Z,1009.59
2019-04-23T00:54:35.737Z,1009.57
2019-04-23T00:55:28.178Z,1009.64
2019-04-23T00:56:44.695Z,1009.59
2019-04-23T00:57:42.532Z,1009.56
2019-04-23T00:58:36.526Z,1009.61
2019-04-23T00:59:42.221Z,1009.62
2019-04-23T01:00:33.682Z,1009.62
2019-04-23T01:01:36.884Z,1009.57
2019-04-23T01:02:31.100Z,1009.57
2019-04-23T01:03:27.378Z,1009.68
2019-04-23T01:04:31.621Z,1009.73
2019-04-23T01:05:31.216Z,1009.57
2019-04-23T01:06:47.649Z,1009.58
2019-04-23T01:07:34.924Z,1009.56
2019-04-23T01:08:33.268Z,1009.56
2019-04-23T01:09:29.619Z,1009.52
2019-04-23T01:10:27.096Z,1009.53
2019-04-23T01:11:36.384Z,1009.56
2019-04-23T01:12:38.003Z,1009.49
2019-04-23T01:13:31.563Z,1009.56
2019-04-23T01:14:27.057Z,1009.53
2019-04-23T01:15:34.114Z,1009.53
2019-04-23T01:16:31.755Z,1009.46
2019-04-23T01:17:37.839Z,1009.55
2019-04-23T01:18:45.270Z,1009.47
2019-04-23T01:19:48.387Z,1009.45
2019-04-23T01:20:28.533Z,1009.43
2019-04-23T01:21:09.636Z,1009.40
2019-04-23T01:22:08.378Z,1009.37
2019-04-23T01:23:07.465Z,1009.42
2019-04-23T01:24:12.250Z,1009.46
2019-04-23T01:25:18.212Z,1009.37
2019-04-23T01:26:31.341Z,1009.45
2019-04-23T01:27:49.976Z,1009.38
2019-04-23T01:28:35.659Z,1009.32
2019-04-23T01:29:37.723Z,1009.32
2019-04-23T01:30:32.881Z,1009.25
2019-04-23T01:31:33.270Z,1009.24
2019-04-23T01:33:43.549Z,1009.34
2019-04-23T01:34:40.494Z,1009.26
2019-04-23T01:36:54.658Z,1009.36
2019-04-23T01:37:36.722Z,1009.32
2019-04-23T01:38:39.834Z,1009.33
2019-04-23T01:39:33.024Z,1009.27
2019-04-23T01:41:35.964Z,1009.27
2019-04-23T01:43:36.486Z,1009.18
2019-04-23T01:44:37.482Z,1009.21
2019-04-23T01:45:27.339Z,1009.13
2019-04-23T01:46:36.010Z,1009.19
2019-04-23T01:47:38.891Z,1009.10
2019-04-23T01:48:38.012Z,1009.19
2019-04-23T01:49:41.619Z,1009.27
2019-04-23T01:50:36.848Z,1009.03
2019-04-23T01:51:39.972Z,1009.08
2019-04-23T01:52:41.793Z,1009.10
2019-04-23T01:53:33.538Z,1009.10
2019-04-23T01:54:38.563Z,1009.15
2019-04-23T01:55:34.713Z,1009.08
2019-04-23T01:57:37.764Z,1009.05
2019-04-23T01:59:31.877Z,1008.99
2019-04-23T02:00:37.060Z,1009.09
2019-04-23T02:01:32.749Z,1009.00
2019-04-23T02:02:49.821Z,1009.02
2019-04-23T02:03:34.696Z,1008.96
2019-04-23T02:04:39.621Z,1009.02
2019-04-23T02:05:52.840Z,1008.88
2019-04-23T02:06:36.681Z,1008.88
2019-04-23T02:07:39.264Z,1009.02
2019-04-23T02:08:32.043Z,1009.01
2019-04-23T02:09:36.084Z,1008.94
2019-04-23T02:10:39.581Z,1008.97
2019-04-23T02:11:34.252Z,1008.96
2019-04-23T02:13:38.733Z,1008.95
2019-04-23T02:14:34.810Z,1008.94
2019-04-23T02:15:47.747Z,1008.90
2019-04-23T02:16:38.819Z,1008.93
2019-04-23T02:17:38.755Z,1008.88
2019-04-23T02:18:47.834Z,1008.84
2019-04-23T02:19:44.733Z,1008.83
2019-04-23T02:20:38.782Z,1008.84
2019-04-23T02:21:36.583Z,1008.88
2019-04-23T02:22:38.752Z,1008.77
2019-04-23T02:24:39.731Z,1008.82
2019-04-23T02:26:33.905Z,1008.86
2019-04-23T02:27:36.639Z,1008.75
2019-04-23T02:28:41.493Z,1008.84
2019-04-23T02:29:44.619Z,1008.87
2019-04-23T02:32:45.730Z,1008.80
2019-04-23T02:33:44.656Z,1008.70
2019-04-23T02:36:54.450Z,1008.73
2019-04-23T02:37:53.755Z,1008.75
2019-04-23T02:38:45.231Z,1008.77
2019-04-23T02:40:08.786Z,1008.79
2019-04-23T02:40:53.385Z,1008.79
2019-04-23T02:43:36.492Z,1008.78
2019-04-23T02:45:48.808Z,1008.81
2019-04-23T02:46:41.240Z,1008.76
2019-04-23T02:47:46.780Z,1008.83
2019-04-23T02:48:44.404Z,1008.82
2019-04-23T02:51:48.980Z,1008.78
2019-04-23T02:52:37.096Z,1008.70
2019-04-23T02:53:55.606Z,1008.71
2019-04-23T02:55:43.301Z,1008.75
2019-04-23T02:56:51.410Z,1008.81
2019-04-23T02:57:43.760Z,1008.64
2019-04-23T02:58:44.003Z,1008.84
2019-04-23T02:59:58.287Z,1008.72
2019-04-23T03:01:36.036Z,1008.64
2019-04-23T03:02:47.749Z,1008.66
2019-04-23T03:03:58.050Z,1008.57
2019-04-23T03:04:42.110Z,1008.61
2019-04-23T03:06:52.220Z,1008.66
2019-04-23T03:07:45.633Z,1008.61
2019-04-23T03:08:42.784Z,1008.57
2019-04-23T03:10:40.386Z,1008.51
2019-04-23T03:11:40.571Z,1008.43
2019-04-23T03:12:37.982Z,1008.67
2019-04-23T03:14:40.211Z,1008.43
2019-04-23T03:15:50.154Z,1008.59
2019-04-23T03:16:45.964Z,1008.58
2019-04-23T03:17:49.681Z,1008.51
2019-04-23T03:19:38.325Z,1008.53
2019-04-23T03:20:53.177Z,1008.42
2019-04-23T03:22:49.441Z,1008.48
2019-04-23T03:24:44.075Z,1008.53
2019-04-23T03:25:38.185Z,1008.49
2019-04-23T03:26:57.381Z,1008.59
2019-04-23T03:27:37.594Z,1008.50
2019-04-23T03:28:51.784Z,1008.44
2019-04-23T03:31:25.277Z,1008.51
2019-04-23T03:34:34.978Z,1008.45
2019-04-23T03:36:10.746Z,1008.45
2019-04-23T03:37:42.333Z,1008.45
2019-04-23T03:38:45.730Z,1008.47
2019-04-23T03:40:39.177Z,1008.44
2019-04-23T03:41:41.749Z,1008.45
2019-04-23T03:42:42.727Z,1008.38
2019-04-23T03:43:39.059Z,1008.44
2019-04-23T03:45:56.332Z,1008.46
2019-04-23T03:49:43.788Z,1008.44
2019-04-23T03:50:43.603Z,1008.41
2019-04-23T03:51:43.374Z,1008.46
2019-04-23T03:52:55.179Z,1008.48
2019-04-23T03:53:52.805Z,1008.45
2019-04-23T03:57:06.063Z,1008.49
2019-04-23T03:57:40.348Z,1008.48
2019-04-23T03:58:47.848Z,1008.43
2019-04-23T04:01:38.748Z,1008.38
2019-04-23T04:02:52.567Z,1008.39
2019-04-23T04:06:52.435Z,1008.36
2019-04-23T04:08:40.640Z,1008.40
2019-04-23T04:09:45.895Z,1008.32
2019-04-23T04:10:47.648Z,1008.40
2019-04-23T04:12:40.008Z,1008.31
2019-04-23T04:13:42.401Z,1008.29
2019-04-23T04:14:56.692Z,1008.40
2019-04-23T04:16:42.580Z,1008.40
2019-04-23T04:17:41.666Z,1008.38
2019-04-23T04:18:54.241Z,1008.36
2019-04-23T04:19:44.467Z,1008.31
2019-04-23T04:21:41.383Z,1008.41
2019-04-23T04:22:50.052Z,1008.36
2019-04-23T04:24:48.663Z,1008.39
2019-04-23T04:25:39.334Z,1008.37
2019-04-23T04:26:50.965Z,1008.35
2019-04-23T04:27:45.828Z,1008.38
2019-04-23T04:29:47.202Z,1008.24
2019-04-23T04:30:49.342Z,1008.31
2019-04-23T04:31:52.394Z,1008.29
2019-04-23T04:33:49.019Z,1008.26
2019-04-23T04:35:12.897Z,1008.21
2019-04-23T04:35:27.197Z,1008.32
2019-04-23T04:37:24.290Z,1008.24
2019-04-23T04:39:42.799Z,1008.25
2019-04-23T04:40:42.306Z,1008.37
2019-04-23T04:41:40.366Z,1008.25
2019-04-23T04:42:33.026Z,1008.34
2019-04-23T04:43:50.826Z,1008.35
2019-04-23T04:44:43.359Z,1008.29
2019-04-23T04:45:52.171Z,1008.34
2019-04-23T04:46:45.597Z,1008.30
2019-04-23T04:49:51.044Z,1008.22
2019-04-23T04:50:45.980Z,1008.27
2019-04-23T04:51:49.392Z,1008.28
2019-04-23T04:55:47.477Z,1008.30
2019-04-23T04:56:36.024Z,1008.30
2019-04-23T04:57:56.678Z,1008.28
2019-04-23T04:58:47.518Z,1008.24
2019-04-23T04:59:50.367Z,1008.25
2019-04-23T05:01:06.225Z,1008.25
2019-04-23T05:01:36.850Z,1008.20
2019-04-23T05:02:57.378Z,1008.31
2019-04-23T05:04:57.685Z,1008.13
2019-04-23T05:06:01.779Z,1008.16
2019-04-23T05:06:44.390Z,1008.10
2019-04-23T05:07:40.494Z,1008.29
2019-04-23T05:08:39.689Z,1008.26
2019-04-23T05:09:47.721Z,1008.22
2019-04-23T05:11:45.825Z,1008.17
2019-04-23T05:14:43.953Z,1008.17
2019-04-23T05:15:37.397Z,1008.14
2019-04-23T05:16:35.637Z,1008.20
2019-04-23T05:17:42.163Z,1008.27
2019-04-23T05:18:41.872Z,1008.14
2019-04-23T05:19:43.031Z,1008.22
2019-04-23T05:20:37.018Z,1008.12
2019-04-23T05:21:52.574Z,1008.14
2019-04-23T05:22:40.779Z,1008.11
2019-04-23T05:23:35.584Z,1008.12
2019-04-23T05:24:36.441Z,1008.52
2019-04-23T05:25:36.638Z,1008.08
2019-04-23T05:26:27.222Z,1008.16
2019-04-23T05:27:43.149Z,1008.16
2019-04-23T05:28:40.892Z,1008.05
2019-04-23T05:29:34.168Z,1008.06
2019-04-23T05:30:38.158Z,1008.09
2019-04-23T05:31:28.062Z,1008.04
2019-04-23T05:32:39.090Z,1008.10
2019-04-23T05:33:34.144Z,1008.10
2019-04-23T05:34:38.655Z,1008.04
2019-04-23T05:36:09.147Z,1008.07
2019-04-23T05:36:33.869Z,1008.01
2019-04-23T05:37:47.439Z,1008.03
2019-04-23T05:38:43.288Z,1008.00
2019-04-23T05:39:49.271Z,1008.02
2019-04-23T05:42:33.093Z,1008.10
2019-04-23T05:43:35.188Z,1008.05
2019-04-23T05:45:34.379Z,1008.07
2019-04-23T05:46:32.939Z,1008.03
2019-04-23T05:47:50.610Z,1007.95
2019-04-23T05:48:33.366Z,1007.96
2019-04-23T05:49:31.850Z,1007.94
2019-04-23T05:50:44.041Z,1007.99
2019-04-23T05:51:38.516Z,1008.02
2019-04-23T05:52:36.055Z,1008.06
2019-04-23T05:53:33.840Z,1008.04
2019-04-23T05:54:43.217Z,1007.88
2019-04-23T05:55:39.833Z,1007.92
2019-04-23T05:56:32.440Z,1007.88
2019-04-23T05:57:34.629Z,1007.85
2019-04-23T05:59:30.093Z,1008.17
2019-04-23T06:00:43.074Z,1007.97
2019-04-23T06:01:54.263Z,1007.95
2019-04-23T06:02:36.094Z,1007.88
2019-04-23T06:03:30.976Z,1007.84
2019-04-23T06:04:38.979Z,1007.82
2019-04-23T06:05:34.157Z,1007.94
2019-04-23T06:06:54.123Z,1007.87
2019-04-23T06:08:38.593Z,1007.80
2019-04-23T06:09:30.480Z,1007.89
2019-04-23T06:10:36.383Z,1007.90
2019-04-23T06:12:31.420Z,1007.82
2019-04-23T06:13:36.598Z,1007.82
2019-04-23T06:14:37.278Z,1007.84
2019-04-23T06:15:35.091Z,1007.78
2019-04-23T06:16:36.077Z,1007.69
2019-04-23T06:17:32.326Z,1007.72
2019-04-23T06:18:40.478Z,1007.76
2019-04-23T06:19:27.645Z,1007.75
2019-04-23T06:20:38.181Z,1007.71
2019-04-23T06:21:44.337Z,1007.64
2019-04-23T06:22:35.328Z,1007.66
2019-04-23T06:23:40.094Z,1007.72
2019-04-23T06:25:50.894Z,1007.69
2019-04-23T06:26:39.631Z,1007.66
2019-04-23T06:27:32.056Z,1007.83
2019-04-23T06:28:31.761Z,1007.56
2019-04-23T06:29:32.292Z,1007.60
2019-04-23T06:30:44.850Z,1007.63
2019-04-23T06:31:38.919Z,1007.63
2019-04-23T06:32:34.259Z,1007.72
2019-04-23T06:33:32.308Z,1007.53
2019-04-23T06:34:34.989Z,1007.63
2019-04-23T06:35:31.961Z,1007.57
2019-04-23T06:36:32.399Z,1007.52
2019-04-23T06:39:35.959Z,1007.62
2019-04-23T06:42:29.507Z,1007.54
2019-04-23T06:43:38.807Z,1007.57
2019-04-23T06:44:30.781Z,1007.69
2019-04-23T06:46:39.862Z,1007.53
2019-04-23T06:47:28.902Z,1007.54
2019-04-23T06:50:34.666Z,1007.61
2019-04-23T06:51:34.936Z,1007.56
2019-04-23T06:52:40.590Z,1007.55
2019-04-23T06:53:30.652Z,1007.61
2019-04-23T06:54:36.124Z,1007.55
2019-04-23T06:56:37.515Z,1007.51
2019-04-23T06:57:25.770Z,1007.47
2019-04-23T06:58:34.251Z,1007.55
2019-04-23T06:59:33.707Z,1007.56
2019-04-23T07:00:34.594Z,1007.59
2019-04-23T07:01:33.414Z,1007.53
2019-04-23T07:02:34.326Z,1007.53
2019-04-23T07:03:38.947Z,1007.52
2019-04-23T07:04:38.161Z,1007.56
2019-04-23T07:05:32.974Z,1007.57
2019-04-23T07:06:38.393Z,1007.54
2019-04-23T07:07:45.206Z,1007.46
2019-04-23T07:08:44.630Z,1007.54
2019-04-23T07:09:18.605Z,1007.46
2019-04-23T07:10:33.308Z,1007.53
2019-04-23T07:12:30.925Z,1007.50
2019-04-23T07:13:40.062Z,1007.49
2019-04-23T07:14:36.968Z,1007.52
2019-04-23T07:15:42.869Z,1007.47
2019-04-23T07:16:49.831Z,1007.42
2019-04-23T07:17:24.323Z,1007.51
2019-04-23T07:18:29.448Z,1007.49
2019-04-23T07:19:33.563Z,1007.52
2019-04-23T07:20:36.013Z,1007.43
2019-04-23T07:21:30.160Z,1007.29
2019-04-23T07:22:26.802Z,1007.39
2019-04-23T07:23:43.203Z,1007.49
2019-04-23T07:24:28.463Z,1007.42
2019-04-23T07:25:48.477Z,1007.30
2019-04-23T07:26:42.118Z,1007.36
2019-04-23T07:27:30.329Z,1007.50
2019-04-23T07:28:39.078Z,1007.59
2019-04-23T07:29:31.388Z,1007.47
2019-04-23T07:31:35.084Z,1007.51
2019-04-23T07:32:31.270Z,1007.54
2019-04-23T07:33:38.248Z,1007.47
2019-04-23T07:34:28.480Z,1007.56
2019-04-23T07:35:33.266Z,1007.46
2019-04-23T07:37:32.545Z,1007.37
2019-04-23T07:38:40.906Z,1007.34
2019-04-23T07:39:35.567Z,1007.37
2019-04-23T07:41:37.832Z,1007.36
2019-04-23T07:42:30.607Z,1007.34
2019-04-23T07:43:28.243Z,1007.31
2019-04-23T07:44:36.832Z,1007.30
2019-04-23T07:45:35.054Z,1007.23
2019-04-23T07:46:41.959Z,1007.27
2019-04-23T07:47:25.141Z,1007.21
2019-04-23T07:48:22.274Z,1007.25
2019-04-23T07:49:34.356Z,1007.16
2019-04-23T07:51:36.846Z,1007.18
2019-04-23T07:52:38.641Z,1007.15
2019-04-23T07:54:45.654Z,1007.24
2019-04-23T07:55:43.328Z,1007.22
2019-04-23T07:56:31.949Z,1007.14
2019-04-23T07:57:53.617Z,1007.17
2019-04-23T07:58:29.271Z,1007.11
2019-04-23T07:59:41.249Z,1007.09
2019-04-23T08:01:30.739Z,1007.10
2019-04-23T08:02:31.657Z,1007.03
2019-04-23T08:03:40.446Z,1007.01
2019-04-23T08:04:37.366Z,1007.01
2019-04-23T08:06:31.511Z,1007.03
2019-04-23T08:07:41.086Z,1006.98
2019-04-23T08:08:30.286Z,1006.96
2019-04-23T08:09:34.422Z,1006.93
2019-04-23T08:12:33.961Z,1006.93
2019-04-23T08:13:37.540Z,1006.97
2019-04-23T08:14:34.297Z,1006.92
2019-04-23T08:16:33.946Z,1006.93
2019-04-23T08:17:31.210Z,1006.91
2019-04-23T08:18:43.762Z,1006.82
2019-04-23T08:19:32.900Z,1006.90
2019-04-23T08:21:30.579Z,1006.80
2019-04-23T08:22:32.384Z,1006.89
2019-04-23T08:23:38.525Z,1006.90
2019-04-23T08:24:28.993Z,1006.85
2019-04-23T08:25:35.839Z,1006.85
2019-04-23T08:26:50.211Z,1006.81
2019-04-23T08:27:29.289Z,1006.88
2019-04-23T08:28:41.987Z,1006.75
2019-04-23T08:29:26.834Z,1006.70
2019-04-23T08:30:25.547Z,1006.69
2019-04-23T08:32:47.234Z,1006.76
2019-04-23T08:33:42.229Z,1006.73
2019-04-23T08:34:36.950Z,1006.73
2019-04-23T08:35:35.148Z,1006.60
2019-04-23T08:36:39.517Z,1006.56
2019-04-23T08:37:34.708Z,1006.66
2019-04-23T08:38:36.246Z,1006.73
2019-04-23T08:39:37.232Z,1006.61
2019-04-23T08:40:40.746Z,1006.62
2019-04-23T08:41:33.860Z,1006.63
2019-04-23T08:42:42.778Z,1006.57
2019-04-23T08:43:51.771Z,1006.62
2019-04-23T08:44:38.866Z,1006.74
2019-04-23T08:45:28.011Z,1006.55
2019-04-23T08:46:46.260Z,1006.63
2019-04-23T08:47:29.742Z,1006.52
2019-04-23T08:49:35.843Z,1006.54
2019-04-23T08:50:32.668Z,1006.57
2019-04-23T08:51:45.896Z,1006.63
2019-04-23T08:52:46.044Z,1006.65
2019-04-23T08:53:37.387Z,1006.57
2019-04-23T08:54:47.061Z,1006.65
2019-04-23T08:56:31.870Z,1006.43
2019-04-23T08:57:29.020Z,1006.53
2019-04-23T08:58:31.969Z,1006.63
2019-04-23T09:00:33.747Z,1006.51
2019-04-23T09:01:35.615Z,1006.59
2019-04-23T09:02:35.297Z,1006.55
2019-04-23T09:03:40.916Z,1006.55
2019-04-23T09:04:30.967Z,1006.55
2019-04-23T09:06:30.806Z,1006.53
2019-04-23T09:07:27.645Z,1006.44
2019-04-23T09:08:49.734Z,1006.42
2019-04-23T09:09:39.796Z,1006.50
2019-04-23T09:10:33.988Z,1006.53
2019-04-23T09:13:50.276Z,1006.33
2019-04-23T09:14:23.117Z,1006.43
2019-04-23T09:17:53.078Z,1006.40
2019-04-23T09:18:29.139Z,1006.37
2019-04-23T09:19:32.126Z,1006.28
2019-04-23T09:20:27.756Z,1006.23
2019-04-23T09:21:29.279Z,1006.19
2019-04-23T09:23:37.278Z,1006.20
2019-04-23T09:24:33.288Z,1006.20
2019-04-23T09:26:40.096Z,1006.21
2019-04-23T09:27:46.282Z,1006.20
2019-04-23T09:28:54.677Z,1006.30
2019-04-23T09:29:57.928Z,1006.21
2019-04-23T09:30:48.744Z,1006.18
2019-04-23T09:32:07.635Z,1006.24
2019-04-23T09:32:47.353Z,1006.15
2019-04-23T09:34:54.240Z,1006.07
2019-04-23T09:35:48.386Z,1006.20
2019-04-23T09:36:51.117Z,1006.09
2019-04-23T09:37:48.822Z,1006.08
2019-04-23T09:38:49.859Z,1006.07
2019-04-23T09:42:08.990Z,1005.86
2019-04-23T09:44:03.091Z,1005.91
2019-04-23T09:45:05.272Z,1005.80
2019-04-23T09:46:07.750Z,1005.91
2019-04-23T09:47:06.548Z,1005.91
2019-04-23T09:48:01.092Z,1005.92
2019-04-23T09:49:11.698Z,1006.05
2019-04-23T09:50:06.734Z,1005.81
2019-04-23T09:51:02.463Z,1005.87
2019-04-23T09:52:09.499Z,1005.84
2019-04-23T09:53:29.110Z,1005.77
2019-04-23T09:54:05.903Z,1005.83
2019-04-23T09:55:05.971Z,1005.77
2019-04-23T09:55:51.474Z,1005.56
2019-04-23T09:56:57.470Z,1005.58
2019-04-23T09:58:06.416Z,1005.65
2019-04-23T09:59:08.855Z,1005.75
2019-04-23T10:00:25.487Z,1005.61
2019-04-23T10:00:52.679Z,1005.63
2019-04-23T10:01:49.827Z,1005.76
2019-04-23T10:02:53.050Z,1005.69
2019-04-23T10:03:49.344Z,1005.61
2019-04-23T10:04:48.613Z,1005.60
2019-04-23T10:05:46.450Z,1005.58
2019-04-23T10:06:38.930Z,1005.55
2019-04-23T10:07:46.213Z,1005.50
2019-04-23T10:08:38.159Z,1005.63
2019-04-23T10:09:34.274Z,1005.43
2019-04-23T10:10:34.311Z,1005.40
2019-04-23T10:11:34.620Z,1005.55
2019-04-23T10:12:33.640Z,1005.39
2019-04-23T10:13:34.317Z,1005.31
2019-04-23T10:14:34.413Z,1005.59
2019-04-23T10:15:38.860Z,1005.58
2019-04-23T10:16:34.383Z,1005.58
2019-04-23T10:17:34.045Z,1005.45
2019-04-23T10:18:33.230Z,1005.43
2019-04-23T10:19:33.060Z,1005.42
2019-04-23T10:20:34.372Z,1005.32
2019-04-23T10:21:33.411Z,1005.46
2019-04-23T10:22:35.842Z,1005.40
2019-04-23T10:23:33.494Z,1005.22
2019-04-23T10:24:32.949Z,1005.25
2019-04-23T10:25:34.141Z,1005.18
2019-04-23T10:26:34.352Z,1005.26
2019-04-23T10:27:33.009Z,1005.37
2019-04-23T10:28:33.839Z,1005.13
2019-04-23T10:29:34.256Z,1005.16
2019-04-23T10:30:33.023Z,1005.21
2019-04-23T10:31:33.487Z,1005.21
2019-04-23T10:32:33.517Z,1005.14
2019-04-23T10:33:34.071Z,1005.38
2019-04-23T10:34:43.014Z,1005.26
2019-04-23T10:35:44.439Z,1005.36
2019-04-23T10:36:34.562Z,1005.40
2019-04-23T10:37:42.716Z,1005.28
2019-04-23T10:38:34.620Z,1005.07
2019-04-23T10:39:37.156Z,1005.14
2019-04-23T10:40:38.189Z,1005.09
2019-04-23T10:41:35.811Z,1005.15
2019-04-23T10:42:35.924Z,1005.35
2019-04-23T10:43:38.228Z,1005.01
2019-04-23T10:44:35.280Z,1005.09
2019-04-23T10:45:51.390Z,1005.01
2019-04-23T10:46:57.707Z,1004.94
2019-04-23T10:48:11.666Z,1005.01
2019-04-23T10:49:11.320Z,1004.96
2019-04-23T10:50:05.524Z,1005.00
2019-04-23T10:50:55.399Z,1004.99
2019-04-23T10:52:07.131Z,1005.06
2019-04-23T10:53:10.230Z,1005.01
2019-04-23T10:54:59.309Z,1004.79
2019-04-23T10:56:00.703Z,1004.78
2019-04-23T10:57:01.676Z,1004.80
2019-04-23T10:58:02.760Z,1004.97
2019-04-23T10:58:58.449Z,1004.73
2019-04-23T11:00:05.122Z,1004.74
2019-04-23T11:01:04.500Z,1004.82
2019-04-23T11:02:16.007Z,1004.76
2019-04-23T11:03:12.283Z,1004.70
2019-04-23T11:04:10.252Z,1004.76
2019-04-23T11:06:06.642Z,1004.83
2019-04-23T11:07:02.818Z,1004.89
2019-04-23T11:07:53.689Z,1004.99
2019-04-23T11:09:10.191Z,1005.01
2019-04-23T11:10:03.679Z,1004.81
2019-04-23T11:11:12.360Z,1004.85
2019-04-23T11:12:16.301Z,1004.79
2019-04-23T11:13:25.750Z,1005.01
2019-04-23T11:14:07.090Z,1004.88
2019-04-23T11:15:08.593Z,1004.92
2019-04-23T11:16:27.425Z,1004.86
2019-04-23T11:17:07.643Z,1004.86
2019-04-23T11:17:52.053Z,1004.86
2019-04-23T11:20:07.713Z,1004.99
2019-04-23T11:21:09.154Z,1004.95
2019-04-23T11:22:24.761Z,1005.25
2019-04-23T11:22:56.885Z,1005.02
2019-04-23T11:24:15.791Z,1004.87
2019-04-23T11:25:16.153Z,1004.86
2019-04-23T11:25:55.984Z,1005.16
2019-04-23T11:27:09.977Z,1005.07
2019-04-23T11:28:10.271Z,1005.17
2019-04-23T11:29:01.119Z,1004.89
2019-04-23T11:30:11.920Z,1005.00
2019-04-23T11:30:54.941Z,1004.98
2019-04-23T11:32:19.368Z,1004.91
2019-04-23T11:35:13.954Z,1004.87
2019-04-23T11:36:43.643Z,1004.83
2019-04-23T11:38:20.977Z,1004.86
2019-04-23T11:38:21.970Z,1004.89
2019-04-23T11:39:17.086Z,1004.89
2019-04-23T11:40:59.910Z,1004.44
2019-04-23T11:42:06.747Z,1004.50
2019-04-23T11:44:02.311Z,1004.78
2019-04-23T11:45:06.986Z,1004.67
2019-04-23T11:46:11.217Z,1004.58
2019-04-23T11:47:04.175Z,1004.71
2019-04-23T11:48:22.378Z,1005.00
2019-04-23T11:49:20.324Z,1004.64
2019-04-23T11:50:12.239Z,1004.65
2019-04-23T11:51:41.109Z,1004.74
2019-04-23T11:53:06.669Z,1004.57
2019-04-23T11:54:05.760Z,1004.63
2019-04-23T11:55:03.161Z,1004.72
2019-04-23T11:56:02.674Z,1004.66
2019-04-23T11:57:22.171Z,1004.70
2019-04-23T11:59:06.922Z,1004.79
2019-04-23T12:00:02.107Z,1004.63
2019-04-23T12:01:11.777Z,1004.55
2019-04-23T12:02:12.180Z,1004.37
2019-04-23T12:02:54.353Z,1004.64
2019-04-23T12:05:17.271Z,1004.48
2019-04-23T12:06:07.878Z,1004.70
2019-04-23T12:06:59.718Z,1004.44
2019-04-23T12:07:57.048Z,1004.59
2019-04-23T12:09:02.492Z,1004.26
2019-04-23T12:10:16.351Z,1004.55
2019-04-23T12:11:35.863Z,1004.24
2019-04-23T12:12:01.525Z,1004.26
2019-04-23T12:13:10.502Z,1004.29
2019-04-23T12:14:10.262Z,1004.50
2019-04-23T12:15:03.627Z,1004.29
2019-04-23T12:16:06.679Z,1004.39
2019-04-23T12:17:50.795Z,1004.33
2019-04-23T12:18:05.461Z,1004.34
2019-04-23T12:19:29.122Z,1004.23
2019-04-23T12:20:06.278Z,1004.29
2019-04-23T12:20:57.505Z,1004.46
2019-04-23T12:23:17.934Z,1004.48
2019-04-23T12:24:10.694Z,1004.33
2019-04-23T12:26:03.708Z,1004.49
2019-04-23T12:27:06.250Z,1004.55
2019-04-23T12:27:47.036Z,1004.50
2019-04-23T12:29:12.685Z,1004.41
2019-04-23T12:30:03.126Z,1004.38
2019-04-23T12:30:57.317Z,1004.42
2019-04-23T12:32:18.082Z,1004.46
2019-04-23T12:33:06.663Z,1004.32
2019-04-23T12:35:04.225Z,1004.30
2019-04-23T12:36:04.875Z,1004.29
2019-04-23T12:37:22.648Z,1004.37
2019-04-23T12:38:02.063Z,1004.21
2019-04-23T12:39:05.241Z,1004.21
2019-04-23T12:40:05.935Z,1004.17
2019-04-23T12:40:55.933Z,1004.18
2019-04-23T12:44:03.301Z,1004.20
2019-04-23T12:45:06.947Z,1004.28
2019-04-23T12:45:57.141Z,1004.23
2019-04-23T12:47:09.077Z,1004.18
2019-04-23T12:49:34.069Z,1004.08
2019-04-23T12:50:32.401Z,1004.19
2019-04-23T12:51:17.528Z,1004.23
2019-04-23T12:52:04.806Z,1004.22
2019-04-23T12:53:19.681Z,1004.18
2019-04-23T12:53:59.397Z,1004.09
2019-04-23T12:55:06.807Z,1004.20
2019-04-23T12:56:21.218Z,1004.20
2019-04-23T12:57:05.298Z,1004.26
2019-04-23T12:58:01.645Z,1004.18
2019-04-23T12:58:56.290Z,1004.24
2019-04-23T13:01:06.776Z,1004.18
2019-04-23T13:02:03.380Z,1004.22
2019-04-23T13:02:55.473Z,1004.08
2019-04-23T13:03:50.487Z,1004.24
2019-04-23T13:05:00.553Z,1004.01
2019-04-23T13:05:53.998Z,1004.11
2019-04-23T13:07:03.280Z,1004.56
2019-04-23T13:08:00.469Z,1004.25
2019-04-23T13:09:00.886Z,1004.06
2019-04-23T13:09:58.621Z,1004.11
2019-04-23T13:11:01.241Z,1003.99
2019-04-23T13:12:03.129Z,1004.02
2019-04-23T13:13:09.169Z,1004.16
2019-04-23T13:14:00.362Z,1004.15
2019-04-23T13:15:02.875Z,1003.96
2019-04-23T13:16:03.561Z,1003.98
2019-04-23T13:17:11.494Z,1004.05
2019-04-23T13:19:06.202Z,1003.97
2019-04-23T13:20:03.700Z,1003.96
2019-04-23T13:21:01.602Z,1003.87
2019-04-23T13:22:07.811Z,1003.85
2019-04-23T13:23:03.153Z,1003.76
2019-04-23T13:23:55.050Z,1003.73
2019-04-23T13:25:01.976Z,1003.73
2019-04-23T13:25:57.142Z,1003.89
2019-04-23T13:26:56.088Z,1003.88
2019-04-23T13:28:19.696Z,1003.98
2019-04-23T13:29:00.894Z,1003.90
2019-04-23T13:30:06.768Z,1003.76
2019-04-23T13:31:02.374Z,1003.92
2019-04-23T13:32:00.846Z,1003.90
2019-04-23T13:33:21.111Z,1003.80
2019-04-23T13:33:58.468Z,1003.74
2019-04-23T13:35:08.450Z,1003.85
2019-04-23T13:37:01.569Z,1003.62
2019-04-23T13:38:57.022Z,1003.75
2019-04-23T13:40:00.143Z,1003.62
2019-04-23T13:42:06.192Z,1003.67
2019-04-23T13:43:07.389Z,1003.67
2019-04-23T13:45:04.950Z,1003.60
2019-04-23T13:46:14.024Z,1003.60
2019-04-23T13:47:06.702Z,1003.79
2019-04-23T13:48:06.271Z,1003.54
2019-04-23T13:48:57.480Z,1003.57
2019-04-23T13:50:09.620Z,1003.49
2019-04-23T13:52:05.913Z,1003.65
2019-04-23T13:53:59.767Z,1003.46
2019-04-23T13:55:09.173Z,1003.73
2019-04-23T13:56:06.243Z,1003.50
2019-04-23T13:58:09.717Z,1003.41
2019-04-23T13:59:03.602Z,1003.41
2019-04-23T14:00:21.128Z,1003.32
2019-04-23T14:01:23.412Z,1003.37
2019-04-23T14:02:07.581Z,1003.35
2019-04-23T14:02:54.797Z,1003.66
2019-04-23T14:04:24.747Z,1003.64
2019-04-23T14:04:59.693Z,1003.45
2019-04-23T14:06:04.875Z,1003.49
2019-04-23T14:07:59.705Z,1003.49
2019-04-23T14:10:04.515Z,1003.53
2019-04-23T14:11:05.558Z,1003.45
2019-04-23T14:12:00.734Z,1003.55
2019-04-23T14:13:16.902Z,1003.41
2019-04-23T14:15:03.616Z,1003.47
2019-04-23T14:16:04.526Z,1003.76
2019-04-23T14:17:08.579Z,1003.50
2019-04-23T14:18:19.256Z,1003.46
2019-04-23T14:20:01.046Z,1003.46
2019-04-23T14:21:02.671Z,1003.51
2019-04-23T14:22:13.586Z,1003.44
2019-04-23T14:23:08.336Z,1003.51
2019-04-23T14:24:07.913Z,1003.47
2019-04-23T14:25:05.812Z,1003.45
2019-04-23T14:27:03.508Z,1003.42
2019-04-23T14:28:13.905Z,1003.66
2019-04-23T14:29:01.218Z,1003.56
2019-04-23T14:30:07.282Z,1003.73